This is the latest recevied weather packets stored in our database for station/object NR6G-12. If no packets are shown the sender has not sent any weather packets the latest 10 day(s).
| Time | Temp. | Humidity | Pressure | Rain* | Wind** | Luminosity | Snow |
|---|---|---|---|---|---|---|---|
| 1778128682 | 11.67° C | 84% | 1020.7 hPa | 0 mm | - | - | - |
| 1778128322 | 11.67° C | 84% | 1020.6 hPa | 0 mm | - | - | - |
| 1778127963 | 11.67° C | 83% | 1020.6 hPa | 0 mm | - | - | - |
| 1778127603 | 11.67° C | 83% | 1020.7 hPa | 0 mm | - | - | - |
| 1778127242 | 11.67° C | 83% | 1020.7 hPa | 0 mm | - | - | - |
| 1778106962 | 15.56° C | 72% | 1018.9 hPa | 0 mm | - | - | - |
| 1778106602 | 15.56° C | 71% | 1019 hPa | 0 mm | - | - | - |
| 1778105882 | 15.56° C | 71% | 1019 hPa | 0 mm | - | - | - |
| 1778105162 | 15.56° C | 74% | 1019.2 hPa | 0 mm | - | - | - |
| 1778104802 | 15.56° C | 74% | 1019.2 hPa | 0 mm | - | - | - |
| 1778104442 | 15.56° C | 71% | 1019.2 hPa | 0 mm | - | - | - |
| 1778104082 | 15° C | 74% | 1019.2 hPa | 0 mm | - | - | - |
| 1778103002 | 15° C | 74% | 1019.5 hPa | 0 mm | - | - | - |
| 1778102282 | 15° C | 76% | 1019.6 hPa | 0 mm | - | - | - |
| 1778100482 | 13.89° C | 78% | 1019.7 hPa | 0 mm | - | - | - |
| 1778099762 | 13.33° C | 79% | 1019.7 hPa | 0 mm | - | - | - |
| 1778099402 | 13.33° C | 78% | 1019.8 hPa | 0 mm | - | - | - |
| 1778098682 | 12.78° C | 81% | 1019.9 hPa | 0 mm | - | - | - |
| 1778098322 | 12.78° C | 79% | 1020 hPa | 0 mm | - | - | - |
| 1778097602 | 12.78° C | 82% | 1019.3 hPa | 0 mm | - | - | - |
| 1778094362 | 12.22° C | 82% | 1019.5 hPa | 0 mm | - | - | - |
| 1778087522 | 10.56° C | 85% | 1019.6 hPa | 0 mm | - | - | - |
| 1778085002 | 10.56° C | 82% | 1019.7 hPa | 0 mm | - | - | - |
| 1778084282 | 10° C | 84% | 1019.8 hPa | 0 mm | - | - | - |
| 1778083743 | 10° C | 87% | 1019.7 hPa | 0 mm | - | - | - |
* Rain latest hour (hover to see other rain measurements)
** Current wind speed in m/s (hover to see current wind gust speed)